createdAt,value
2017-03-24T00:00:58.916Z,1027.83
2017-03-24T00:02:20.778Z,1027.82
2017-03-24T00:03:43.247Z,1027.87
2017-03-24T00:05:05.392Z,1027.82
2017-03-24T00:06:28.153Z,1027.87
2017-03-24T00:07:50.296Z,1027.89
2017-03-24T00:09:12.851Z,1027.93
2017-03-24T00:10:34.660Z,1027.93
2017-03-24T00:11:57.070Z,1027.94
2017-03-24T00:13:18.899Z,1027.96
2017-03-24T00:14:41.122Z,1028.03
2017-03-24T00:16:03.375Z,1028.05
2017-03-24T00:17:25.789Z,1028.09
2017-03-24T00:18:48.317Z,1028.15
2017-03-24T00:20:10.145Z,1028.14
2017-03-24T00:21:31.863Z,1028.24
2017-03-24T00:24:45.603Z,1028.21
2017-03-24T00:26:08.048Z,1028.28
2017-03-24T00:27:30.495Z,1028.24
2017-03-24T00:28:52.276Z,1028.29
2017-03-24T00:30:14.094Z,1028.36
2017-03-24T00:31:36.236Z,1028.3
2017-03-24T00:32:57.451Z,1028.35
2017-03-24T00:34:20.543Z,1028.33
2017-03-24T00:35:42.670Z,1028.37
2017-03-24T00:37:04.488Z,1028.38
2017-03-24T00:38:26.287Z,1028.39
2017-03-24T00:39:49.048Z,1028.37
2017-03-24T00:41:11.583Z,1028.4
2017-03-24T00:42:33.695Z,1028.36
2017-03-24T00:43:56.184Z,1028.39
2017-03-24T00:45:18.305Z,1028.44
2017-03-24T00:46:40.612Z,1028.47
2017-03-24T00:48:02.787Z,1028.46
2017-03-24T00:49:25.245Z,1028.51
2017-03-24T00:50:47.780Z,1028.55
2017-03-24T00:52:09.906Z,1028.54
2017-03-24T00:53:32.038Z,1028.55
2017-03-24T00:54:54.271Z,1028.59
2017-03-24T00:56:16.500Z,1028.63
2017-03-24T00:57:38.609Z,1028.67
2017-03-24T00:59:00.819Z,1028.71
2017-03-24T01:00:22.947Z,1028.77
2017-03-24T01:01:45.329Z,1028.76
2017-03-24T01:03:07.163Z,1028.74
2017-03-24T01:04:29.614Z,1028.77
2017-03-24T01:05:51.127Z,1028.73
2017-03-24T01:07:13.916Z,1028.8
2017-03-24T01:08:36.046Z,1028.83
2017-03-24T01:09:57.906Z,1028.85
2017-03-24T01:11:20.023Z,1028.86
2017-03-24T01:12:42.527Z,1028.91
2017-03-24T01:14:03.723Z,1028.86
2017-03-24T01:15:26.196Z,1028.91
2017-03-24T01:16:48.619Z,1028.88
2017-03-24T01:18:10.677Z,1028.91
2017-03-24T01:19:32.810Z,1028.91
2017-03-24T01:20:54.970Z,1028.91
2017-03-24T01:22:17.093Z,1028.98
2017-03-24T01:23:39.564Z,1028.98
2017-03-24T01:25:01.870Z,1029.04
2017-03-24T01:26:23.693Z,1029.02
2017-03-24T01:27:46.227Z,1029.03
2017-03-24T01:29:08.675Z,1029.04
2017-03-24T01:30:30.302Z,1029.05
2017-03-24T01:31:52.450Z,1029.06
2017-03-24T01:33:14.587Z,1029.03
2017-03-24T01:34:37.067Z,1029.09
2017-03-24T01:35:59.014Z,1029.08
2017-03-24T01:37:21.162Z,1029.1
2017-03-24T01:38:43.275Z,1029.11
2017-03-24T01:40:06.074Z,1029.09
2017-03-24T01:41:28.209Z,1029.06
2017-03-24T01:42:49.706Z,1029.07
2017-03-24T01:44:12.189Z,1029.11
2017-03-24T01:45:34.618Z,1029.13
2017-03-24T01:46:56.446Z,1029.16
2017-03-24T01:48:18.306Z,1029.17
2017-03-24T01:49:39.809Z,1029.17
2017-03-24T01:51:02.287Z,1029.16
2017-03-24T01:52:24.793Z,1029.16
2017-03-24T01:53:46.776Z,1029.17
2017-03-24T01:55:08.274Z,1029.2
2017-03-24T01:56:30.418Z,1029.22
2017-03-24T01:57:52.869Z,1029.18
2017-03-24T01:59:14.991Z,1029.21
2017-03-24T02:00:37.050Z,1029.2
2017-03-24T02:01:59.499Z,1029.24
2017-03-24T02:03:21.412Z,1029.23
2017-03-24T02:04:43.238Z,1029.22
2017-03-24T02:06:05.776Z,1029.23
2017-03-24T02:07:27.881Z,1029.19
2017-03-24T02:08:49.817Z,1029.17
2017-03-24T02:10:11.378Z,1029.22
2017-03-24T02:11:33.182Z,1029.24
2017-03-24T02:12:55.612Z,1029.24
2017-03-24T02:14:17.357Z,1029.24
2017-03-24T02:15:39.466Z,1029.27
2017-03-24T02:17:01.316Z,1029.26
2017-03-24T02:18:23.652Z,1029.27
2017-03-24T02:19:45.796Z,1029.28
2017-03-24T02:21:07.607Z,1029.23
2017-03-24T02:22:29.435Z,1029.23
2017-03-24T02:23:52.211Z,1029.24
2017-03-24T02:25:14.360Z,1029.23
2017-03-24T02:26:36.167Z,1029.3
2017-03-24T02:27:57.710Z,1029.36
2017-03-24T02:29:20.675Z,1029.36
2017-03-24T02:30:42.516Z,1029.33
2017-03-24T02:32:03.709Z,1029.36
2017-03-24T02:33:25.223Z,1029.32
2017-03-24T02:34:47.026Z,1029.34
2017-03-24T02:36:09.274Z,1029.29
2017-03-24T02:37:32.029Z,1029.28
2017-03-24T02:38:54.160Z,1029.29
2017-03-24T02:40:16.602Z,1029.28
2017-03-24T02:41:38.441Z,1029.33
2017-03-24T02:43:00.337Z,1029.35
2017-03-24T02:44:22.477Z,1029.37
2017-03-24T02:45:44.645Z,1029.41
2017-03-24T02:47:06.554Z,1029.45
2017-03-24T02:48:28.115Z,1029.45
2017-03-24T02:49:49.940Z,1029.42
2017-03-24T02:51:12.415Z,1029.44
2017-03-24T02:52:34.228Z,1029.38
2017-03-24T02:53:55.708Z,1029.42
2017-03-24T02:55:18.176Z,1029.47
2017-03-24T02:56:40.590Z,1029.45
2017-03-24T02:58:02.385Z,1029.45
2017-03-24T02:59:24.525Z,1029.44
2017-03-24T03:00:46.015Z,1029.43
2017-03-24T03:02:08.567Z,1029.44
2017-03-24T03:03:30.817Z,1029.43
2017-03-24T03:04:53.050Z,1029.42
2017-03-24T03:06:15.172Z,1029.43
2017-03-24T03:07:37.625Z,1029.46
2017-03-24T03:08:59.446Z,1029.43
2017-03-24T03:10:21.673Z,1029.46
2017-03-24T03:11:43.807Z,1029.47
2017-03-24T03:13:06.217Z,1029.5
2017-03-24T03:14:28.479Z,1029.51
2017-03-24T03:15:50.607Z,1029.46
2017-03-24T03:17:13.227Z,1029.51
2017-03-24T03:18:35.978Z,1029.51
2017-03-24T03:19:58.122Z,1029.45
2017-03-24T03:21:19.943Z,1029.49
2017-03-24T03:22:42.259Z,1029.5
2017-03-24T03:24:04.677Z,1029.55
2017-03-24T03:25:26.177Z,1029.54
2017-03-24T03:26:48.308Z,1029.59
2017-03-24T03:28:10.461Z,1029.53
2017-03-24T03:29:32.373Z,1029.54
2017-03-24T03:30:54.617Z,1029.54
2017-03-24T03:32:17.077Z,1029.56
2017-03-24T03:33:39.199Z,1029.55
2017-03-24T03:35:01.658Z,1029.56
2017-03-24T03:36:23.485Z,1029.58
2017-03-24T03:37:44.994Z,1029.62
2017-03-24T03:39:07.448Z,1029.64
2017-03-24T03:40:29.888Z,1029.65
2017-03-24T03:41:52.041Z,1029.67
2017-03-24T03:43:14.427Z,1029.66
2017-03-24T03:44:36.266Z,1029.7
2017-03-24T03:45:59.060Z,1029.72
2017-03-24T03:47:21.493Z,1029.73
2017-03-24T03:48:43.329Z,1029.79
2017-03-24T03:50:05.462Z,1029.85
2017-03-24T03:51:27.626Z,1029.85
2017-03-24T03:52:49.476Z,1029.89
2017-03-24T03:54:11.670Z,1029.89
2017-03-24T03:55:33.796Z,1029.89
2017-03-24T03:56:55.607Z,1029.96
2017-03-24T03:58:17.102Z,1029.98
2017-03-24T03:59:39.015Z,1030
2017-03-24T04:01:01.138Z,1030.03
2017-03-24T04:02:23.239Z,1030.02
2017-03-24T04:03:44.818Z,1030.01
2017-03-24T04:05:06.430Z,1030.05
2017-03-24T04:06:28.579Z,1030.07
2017-03-24T04:07:50.987Z,1030.08
2017-03-24T04:09:12.798Z,1030.16
2017-03-24T04:10:35.295Z,1030.24
2017-03-24T04:11:57.135Z,1030.26
2017-03-24T04:13:19.521Z,1030.27
2017-03-24T04:14:42.073Z,1030.28
2017-03-24T04:16:03.875Z,1030.32
2017-03-24T04:17:25.368Z,1030.27
2017-03-24T04:18:47.495Z,1030.25
2017-03-24T04:20:09.304Z,1030.33
2017-03-24T04:21:31.484Z,1030.34
2017-03-24T04:22:54.247Z,1030.35
2017-03-24T04:24:17.164Z,1030.41
2017-03-24T04:25:38.976Z,1030.43
2017-03-24T04:27:01.105Z,1030.48
2017-03-24T04:28:23.413Z,1030.51
2017-03-24T04:29:46.195Z,1030.53
2017-03-24T04:31:08.326Z,1030.57
2017-03-24T04:32:30.509Z,1030.58
2017-03-24T04:33:52.635Z,1030.62
2017-03-24T04:35:15.319Z,1030.66
2017-03-24T04:36:37.467Z,1030.65
2017-03-24T04:37:59.599Z,1030.7
2017-03-24T04:39:21.729Z,1030.7
2017-03-24T04:40:44.008Z,1030.75
2017-03-24T04:42:05.512Z,1030.77
2017-03-24T04:43:27.970Z,1030.81
2017-03-24T04:44:50.439Z,1030.81
2017-03-24T04:46:13.305Z,1030.85
2017-03-24T04:47:35.709Z,1030.84
2017-03-24T04:48:57.867Z,1030.87
2017-03-24T04:50:19.998Z,1030.89
2017-03-24T04:51:42.980Z,1030.93
2017-03-24T04:53:05.531Z,1030.91
2017-03-24T04:54:28.000Z,1030.92
2017-03-24T04:55:50.151Z,1031
2017-03-24T04:57:12.757Z,1031.03
2017-03-24T04:58:33.942Z,1031.06
2017-03-24T04:59:54.948Z,1031.06
2017-03-24T05:01:17.435Z,1031.08
2017-03-24T05:02:39.556Z,1031.15
2017-03-24T05:04:01.531Z,1031.15
2017-03-24T05:05:23.680Z,1031.19
2017-03-24T05:06:45.838Z,1031.24
2017-03-24T05:08:07.050Z,1031.26
2017-03-24T05:09:29.225Z,1031.25
2017-03-24T05:10:51.155Z,1031.29
2017-03-24T05:12:13.283Z,1031.3
2017-03-24T05:13:35.417Z,1031.33
2017-03-24T05:14:57.936Z,1031.32
2017-03-24T05:16:20.588Z,1031.3
2017-03-24T05:17:41.805Z,1031.28
2017-03-24T05:19:04.599Z,1031.31
2017-03-24T05:20:26.419Z,1031.31
2017-03-24T05:21:48.611Z,1031.27
2017-03-24T05:23:11.049Z,1031.34
2017-03-24T05:24:33.175Z,1031.3
2017-03-24T05:25:55.408Z,1031.3
2017-03-24T05:27:17.546Z,1031.35
2017-03-24T05:28:39.680Z,1031.31
2017-03-24T05:30:02.173Z,1031.34
2017-03-24T05:31:24.303Z,1031.32
2017-03-24T05:32:46.839Z,1031.35
2017-03-24T05:34:08.985Z,1031.34
2017-03-24T05:35:31.678Z,1031.35
2017-03-24T05:36:54.062Z,1031.36
2017-03-24T05:38:16.452Z,1031.43
2017-03-24T05:39:38.634Z,1031.42
2017-03-24T05:41:00.851Z,1031.47
2017-03-24T05:42:23.007Z,1031.53
2017-03-24T05:43:45.223Z,1031.58
2017-03-24T05:45:07.358Z,1031.57
2017-03-24T05:46:30.129Z,1031.62
2017-03-24T05:47:52.583Z,1031.64
2017-03-24T05:49:14.734Z,1031.67
2017-03-24T05:50:36.617Z,1031.69
2017-03-24T05:51:59.289Z,1031.7
2017-03-24T05:53:21.757Z,1031.76
2017-03-24T05:54:43.588Z,1031.74
2017-03-24T05:56:05.396Z,1031.75
2017-03-24T05:57:28.238Z,1031.76
2017-03-24T05:58:50.815Z,1031.79
2017-03-24T06:00:12.426Z,1031.79
2017-03-24T06:01:34.276Z,1031.8
2017-03-24T06:02:56.704Z,1031.8
2017-03-24T06:04:18.861Z,1031.86
2017-03-24T06:05:41.010Z,1031.92
2017-03-24T06:07:03.229Z,1031.98
2017-03-24T06:08:27.246Z,1032.02
2017-03-24T06:09:48.849Z,1032.07
2017-03-24T06:11:11.308Z,1032.08
2017-03-24T06:12:33.466Z,1032.08
2017-03-24T06:13:55.956Z,1032.04
2017-03-24T06:15:18.416Z,1032.09
2017-03-24T06:16:40.862Z,1032.11
2017-03-24T06:18:02.699Z,1032.19
2017-03-24T06:19:24.834Z,1032.19
2017-03-24T06:20:47.361Z,1032.26
2017-03-24T06:22:09.519Z,1032.26
2017-03-24T06:23:31.987Z,1032.33
2017-03-24T06:24:54.150Z,1032.37
2017-03-24T06:26:16.727Z,1032.37
2017-03-24T06:27:39.198Z,1032.34
2017-03-24T06:29:01.666Z,1032.29
2017-03-24T06:30:24.089Z,1032.28
2017-03-24T06:31:45.930Z,1032.31
2017-03-24T06:33:07.755Z,1032.32
2017-03-24T06:34:30.330Z,1032.37
2017-03-24T06:35:52.198Z,1032.4
2017-03-24T06:37:14.038Z,1032.38
2017-03-24T06:38:36.409Z,1032.38
2017-03-24T06:39:58.296Z,1032.37
2017-03-24T06:41:20.447Z,1032.37
2017-03-24T06:42:43.010Z,1032.36
2017-03-24T06:44:05.387Z,1032.41
2017-03-24T06:45:26.948Z,1032.44
2017-03-24T06:46:49.349Z,1032.45
2017-03-24T06:48:11.508Z,1032.43
2017-03-24T06:49:33.689Z,1032.49
2017-03-24T06:50:55.954Z,1032.5
2017-03-24T06:52:18.336Z,1032.47
2017-03-24T06:53:40.168Z,1032.5
2017-03-24T06:55:02.365Z,1032.51
2017-03-24T06:56:24.974Z,1032.49
2017-03-24T06:57:47.256Z,1032.55
2017-03-24T06:59:09.404Z,1032.55
2017-03-24T07:00:32.206Z,1032.57
2017-03-24T07:01:54.700Z,1032.58
2017-03-24T07:03:17.221Z,1032.51
2017-03-24T07:04:39.048Z,1032.51
2017-03-24T07:06:00.937Z,1032.49
2017-03-24T07:07:22.859Z,1032.52
2017-03-24T07:08:45.180Z,1032.59
2017-03-24T07:10:07.150Z,1032.58
2017-03-24T07:11:29.282Z,1032.63
2017-03-24T07:12:51.415Z,1032.63
2017-03-24T07:14:13.893Z,1032.63
2017-03-24T07:15:35.717Z,1032.65
2017-03-24T07:16:57.600Z,1032.68
2017-03-24T07:18:19.527Z,1032.66
2017-03-24T07:19:42.419Z,1032.63
2017-03-24T07:21:04.268Z,1032.6
2017-03-24T07:22:26.815Z,1032.66
2017-03-24T07:23:48.960Z,1032.68
2017-03-24T07:25:10.490Z,1032.71
2017-03-24T07:26:32.367Z,1032.65
2017-03-24T07:27:54.185Z,1032.7
2017-03-24T07:29:16.850Z,1032.72
2017-03-24T07:30:39.729Z,1032.67
2017-03-24T07:32:02.193Z,1032.72
2017-03-24T07:33:24.387Z,1032.74
2017-03-24T07:34:46.519Z,1032.76
2017-03-24T07:36:08.659Z,1032.85
2017-03-24T07:37:30.864Z,1032.87
2017-03-24T07:38:53.313Z,1032.87
2017-03-24T07:40:14.507Z,1032.82
2017-03-24T07:41:37.065Z,1032.85
2017-03-24T07:42:58.910Z,1032.85
2017-03-24T07:44:21.486Z,1032.81
2017-03-24T07:45:43.112Z,1032.76
2017-03-24T07:47:05.872Z,1032.72
2017-03-24T07:48:27.695Z,1032.64
2017-03-24T07:49:49.694Z,1032.72
2017-03-24T07:51:11.590Z,1032.7
2017-03-24T07:52:33.745Z,1032.72
2017-03-24T07:53:55.928Z,1032.75
2017-03-24T07:55:17.491Z,1032.79
2017-03-24T07:56:39.409Z,1032.81
2017-03-24T07:58:01.899Z,1032.84
2017-03-24T07:59:24.065Z,1032.84
2017-03-24T08:00:45.602Z,1032.84
2017-03-24T08:02:07.783Z,1032.82
2017-03-24T08:03:29.846Z,1032.81
2017-03-24T08:04:52.579Z,1032.8
2017-03-24T08:06:15.056Z,1032.79
2017-03-24T08:07:36.597Z,1032.81
2017-03-24T08:08:58.686Z,1032.83
2017-03-24T08:10:19.866Z,1032.86
2017-03-24T08:11:42.093Z,1032.83
2017-03-24T08:13:03.582Z,1032.82
2017-03-24T08:14:25.968Z,1032.91
2017-03-24T08:15:48.416Z,1032.89
2017-03-24T08:17:10.360Z,1032.9
2017-03-24T08:18:32.511Z,1032.88
2017-03-24T08:19:54.678Z,1032.88
2017-03-24T08:21:17.127Z,1032.9
2017-03-24T08:22:39.605Z,1032.95
2017-03-24T08:24:01.755Z,1032.99
2017-03-24T08:25:23.857Z,1033
2017-03-24T08:26:46.314Z,1033.02
2017-03-24T08:28:08.771Z,1032.96
2017-03-24T08:29:31.036Z,1032.98
2017-03-24T08:30:52.825Z,1032.99
2017-03-24T08:32:14.669Z,1033.06
2017-03-24T08:33:36.816Z,1033.05
2017-03-24T08:34:58.725Z,1033.05
2017-03-24T08:36:20.540Z,1033.07
2017-03-24T08:37:42.977Z,1033.09
2017-03-24T08:39:05.157Z,1033.14
2017-03-24T08:40:27.616Z,1033.11
2017-03-24T08:41:50.323Z,1033.13
2017-03-24T08:43:12.838Z,1033.13
2017-03-24T08:44:35.074Z,1033.13
2017-03-24T08:45:57.681Z,1033.14
2017-03-24T08:47:20.445Z,1033.16
2017-03-24T08:48:42.812Z,1033.2
2017-03-24T08:50:04.631Z,1033.21
2017-03-24T08:51:26.506Z,1033.21
2017-03-24T08:52:48.818Z,1033.23
2017-03-24T08:54:10.640Z,1033.17
2017-03-24T08:55:32.994Z,1033.23
2017-03-24T08:56:55.188Z,1033.22
2017-03-24T08:58:17.585Z,1033.2
2017-03-24T08:59:39.433Z,1033.12
2017-03-24T09:01:01.233Z,1033.2
2017-03-24T09:02:23.342Z,1033.15
2017-03-24T09:03:45.773Z,1033.16
2017-03-24T09:05:08.203Z,1033.19
2017-03-24T09:06:29.773Z,1033.08
2017-03-24T09:07:51.898Z,1033.1
2017-03-24T09:09:14.326Z,1033.06
2017-03-24T09:10:36.164Z,1033.03
2017-03-24T09:11:58.434Z,1033.03
2017-03-24T09:13:19.929Z,1032.97
2017-03-24T09:14:42.404Z,1032.95
2017-03-24T09:16:04.889Z,1033
2017-03-24T09:17:27.443Z,1032.96
2017-03-24T09:18:49.592Z,1032.95
2017-03-24T09:20:12.366Z,1033
2017-03-24T09:21:34.681Z,1033.05
2017-03-24T09:22:57.123Z,1033.15
2017-03-24T09:24:19.290Z,1033.06
2017-03-24T09:25:41.799Z,1033.15
2017-03-24T09:27:03.944Z,1033.11
2017-03-24T09:28:26.519Z,1033.15
2017-03-24T09:29:48.988Z,1033.13
2017-03-24T09:31:11.122Z,1033.09
2017-03-24T09:32:33.493Z,1033.12
2017-03-24T09:33:55.971Z,1033.07
2017-03-24T09:35:18.179Z,1033.1
2017-03-24T09:36:41.035Z,1033.16
2017-03-24T09:38:02.942Z,1033.18
2017-03-24T09:39:25.682Z,1033.2
2017-03-24T09:40:47.608Z,1033.26
2017-03-24T09:42:10.217Z,1033.2
2017-03-24T09:43:32.402Z,1033.25
2017-03-24T09:44:55.165Z,1033.28
2017-03-24T09:46:17.402Z,1033.26
2017-03-24T09:47:39.475Z,1033.33
2017-03-24T09:49:01.325Z,1033.31
2017-03-24T09:50:23.790Z,1033.35
2017-03-24T09:51:45.647Z,1033.45
2017-03-24T09:53:07.779Z,1033.45
2017-03-24T09:54:29.946Z,1033.45
2017-03-24T09:55:51.786Z,1033.49
2017-03-24T09:57:12.994Z,1033.53
2017-03-24T09:58:35.282Z,1033.54
2017-03-24T09:59:57.400Z,1033.59
2017-03-24T10:01:19.885Z,1033.63
2017-03-24T10:02:42.463Z,1033.68
2017-03-24T10:04:04.979Z,1033.71
2017-03-24T10:05:27.245Z,1033.69
2017-03-24T10:06:49.611Z,1033.76
2017-03-24T10:08:12.049Z,1033.74
2017-03-24T10:09:34.092Z,1033.77
2017-03-24T10:10:55.915Z,1033.82
2017-03-24T10:12:18.039Z,1033.84
2017-03-24T10:13:40.166Z,1033.86
2017-03-24T10:15:03.076Z,1033.79
2017-03-24T10:16:25.540Z,1033.79
2017-03-24T10:17:48.025Z,1033.79
2017-03-24T10:19:10.496Z,1033.82
2017-03-24T10:20:32.613Z,1033.76
2017-03-24T10:21:55.146Z,1033.72
2017-03-24T10:23:17.287Z,1033.66
2017-03-24T10:24:39.486Z,1033.72
2017-03-24T10:26:02.253Z,1033.71
2017-03-24T10:27:24.706Z,1033.65
2017-03-24T10:28:46.541Z,1033.69
2017-03-24T10:30:08.744Z,1033.66
2017-03-24T10:31:31.160Z,1033.66
2017-03-24T10:32:53.437Z,1033.61
2017-03-24T10:34:15.895Z,1033.65
2017-03-24T10:35:37.763Z,1033.65
2017-03-24T10:37:00.203Z,1033.73
2017-03-24T10:38:22.399Z,1033.77
2017-03-24T10:39:44.555Z,1033.77
2017-03-24T10:41:06.989Z,1033.78
2017-03-24T10:42:29.426Z,1033.79
2017-03-24T10:43:51.284Z,1033.74
2017-03-24T10:45:13.439Z,1033.79
2017-03-24T10:46:35.364Z,1033.79
2017-03-24T10:47:57.874Z,1033.82
2017-03-24T10:49:19.372Z,1033.81
2017-03-24T10:50:41.529Z,1033.73
2017-03-24T10:52:03.676Z,1033.77
2017-03-24T10:53:25.745Z,1033.87
2017-03-24T10:54:47.232Z,1033.88
2017-03-24T10:56:08.884Z,1033.91
2017-03-24T10:57:30.721Z,1033.88
2017-03-24T10:58:53.494Z,1033.91
2017-03-24T11:00:47.940Z,1033.87
2017-03-24T11:02:09.757Z,1033.85
2017-03-24T11:03:31.941Z,1033.85
2017-03-24T11:04:54.676Z,1033.86
2017-03-24T11:06:17.207Z,1033.86
2017-03-24T11:07:39.707Z,1033.87
2017-03-24T11:09:02.117Z,1033.88
2017-03-24T11:10:24.309Z,1033.87
2017-03-24T11:11:46.967Z,1033.92
2017-03-24T11:13:09.249Z,1033.93
2017-03-24T11:14:32.017Z,1033.93
2017-03-24T11:15:54.688Z,1033.91
2017-03-24T11:17:16.489Z,1033.9
2017-03-24T11:18:39.012Z,1033.85
2017-03-24T11:20:00.831Z,1033.83
2017-03-24T11:21:23.323Z,1033.74
2017-03-24T11:22:45.796Z,1033.77
2017-03-24T11:24:07.635Z,1033.74
2017-03-24T11:25:29.479Z,1033.77
2017-03-24T11:26:51.655Z,1033.76
2017-03-24T11:28:13.466Z,1033.76
2017-03-24T11:29:35.700Z,1033.78
2017-03-24T11:30:58.147Z,1033.78
2017-03-24T11:32:20.646Z,1033.79
2017-03-24T11:33:42.242Z,1033.75
2017-03-24T11:35:04.097Z,1033.72
2017-03-24T11:36:25.897Z,1033.68
2017-03-24T11:37:48.017Z,1033.68
2017-03-24T11:39:10.475Z,1033.68
2017-03-24T11:40:32.618Z,1033.68
2017-03-24T11:41:55.134Z,1033.68
2017-03-24T11:43:16.956Z,1033.69
2017-03-24T11:44:38.787Z,1033.71
2017-03-24T11:46:00.925Z,1033.71
2017-03-24T11:47:23.632Z,1033.76
2017-03-24T11:48:46.074Z,1033.74
2017-03-24T11:50:08.534Z,1033.69
2017-03-24T11:51:30.050Z,1033.67
2017-03-24T11:52:52.854Z,1033.74
2017-03-24T11:54:14.997Z,1033.67
2017-03-24T11:55:37.447Z,1033.76
2017-03-24T11:56:59.959Z,1033.77
2017-03-24T11:58:22.351Z,1033.82
2017-03-24T11:59:45.143Z,1033.81
2017-03-24T12:01:06.990Z,1033.81
2017-03-24T12:02:29.289Z,1033.8
2017-03-24T12:03:52.092Z,1033.81
2017-03-24T12:05:13.932Z,1033.83
2017-03-24T12:06:36.196Z,1033.85
2017-03-24T12:07:58.366Z,1033.89
2017-03-24T12:09:20.823Z,1033.89
2017-03-24T12:10:42.739Z,1033.94
2017-03-24T12:12:04.868Z,1033.95
2017-03-24T12:13:27.058Z,1033.94
2017-03-24T12:14:49.918Z,1033.98
2017-03-24T12:16:12.047Z,1033.99
2017-03-24T12:17:34.548Z,1033.99
2017-03-24T12:18:57.405Z,1034
2017-03-24T12:20:20.476Z,1034.03
2017-03-24T12:21:43.019Z,1034.06
2017-03-24T12:23:05.478Z,1034.05
2017-03-24T12:24:27.632Z,1033.98
2017-03-24T12:25:50.409Z,1033.98
2017-03-24T12:27:12.847Z,1034
2017-03-24T12:28:34.355Z,1033.95
2017-03-24T12:29:56.827Z,1033.96
2017-03-24T12:31:18.976Z,1033.93
2017-03-24T12:32:41.119Z,1033.88
2017-03-24T12:34:03.700Z,1033.87
2017-03-24T12:35:25.865Z,1033.83
2017-03-24T12:36:48.699Z,1033.79
2017-03-24T12:38:10.844Z,1033.82
2017-03-24T12:39:33.414Z,1033.87
2017-03-24T12:40:55.577Z,1033.85
2017-03-24T12:42:18.359Z,1033.87
2017-03-24T12:43:40.915Z,1033.89
2017-03-24T12:45:03.544Z,1033.87
2017-03-24T12:46:26.010Z,1033.84
2017-03-24T12:47:48.700Z,1033.82
2017-03-24T12:49:10.542Z,1033.81
2017-03-24T12:50:32.675Z,1033.8
2017-03-24T12:51:55.148Z,1033.82
2017-03-24T12:53:17.493Z,1033.85
2017-03-24T12:54:39.976Z,1033.85
2017-03-24T12:56:01.840Z,1033.83
2017-03-24T12:57:24.297Z,1033.86
2017-03-24T12:58:46.737Z,1033.85
2017-03-24T13:00:09.301Z,1033.87
2017-03-24T13:01:31.551Z,1033.88
2017-03-24T13:02:53.720Z,1033.9
2017-03-24T13:04:16.588Z,1033.88
2017-03-24T13:05:39.080Z,1033.92
2017-03-24T13:07:01.379Z,1033.92
2017-03-24T13:08:24.065Z,1033.89
2017-03-24T13:09:46.897Z,1033.9
2017-03-24T13:11:09.442Z,1033.85
2017-03-24T13:12:31.890Z,1033.82
2017-03-24T13:13:54.090Z,1033.82
2017-03-24T13:15:16.489Z,1033.78
2017-03-24T13:16:38.658Z,1033.79
2017-03-24T13:18:00.507Z,1033.81
2017-03-24T13:19:23.049Z,1033.84
2017-03-24T13:20:45.465Z,1033.85
2017-03-24T13:22:07.646Z,1033.88
2017-03-24T13:23:29.487Z,1033.84
2017-03-24T13:24:51.677Z,1033.87
2017-03-24T13:26:14.477Z,1033.86
2017-03-24T13:27:37.019Z,1033.8
2017-03-24T13:28:58.853Z,1033.79
2017-03-24T13:30:21.124Z,1033.77
2017-03-24T13:31:43.659Z,1033.74
2017-03-24T13:33:05.829Z,1033.7
2017-03-24T13:34:28.067Z,1033.71
2017-03-24T13:35:50.234Z,1033.7
2017-03-24T13:37:13.008Z,1033.73
2017-03-24T13:38:35.256Z,1033.71
2017-03-24T13:39:57.751Z,1033.67
2017-03-24T13:41:19.329Z,1033.7
2017-03-24T13:42:41.945Z,1033.69
2017-03-24T13:44:04.279Z,1033.65
2017-03-24T13:45:26.439Z,1033.65
2017-03-24T13:46:48.905Z,1033.67
2017-03-24T13:48:11.369Z,1033.68
2017-03-24T13:49:33.874Z,1033.63
2017-03-24T13:50:55.722Z,1033.62
2017-03-24T13:52:17.591Z,1033.62
2017-03-24T13:53:40.458Z,1033.61
2017-03-24T13:55:02.949Z,1033.63
2017-03-24T13:56:25.403Z,1033.6
2017-03-24T13:57:47.921Z,1033.64
2017-03-24T13:59:10.707Z,1033.65
2017-03-24T14:00:33.193Z,1033.72
2017-03-24T14:01:55.399Z,1033.76
2017-03-24T14:03:17.613Z,1033.76
2017-03-24T14:04:40.062Z,1033.75
2017-03-24T14:06:02.238Z,1033.78
2017-03-24T14:07:24.740Z,1033.79
2017-03-24T14:08:47.227Z,1033.77
2017-03-24T14:10:10.073Z,1033.74
2017-03-24T14:11:32.560Z,1033.77
2017-03-24T14:12:55.047Z,1033.72
2017-03-24T14:14:16.928Z,1033.8
2017-03-24T14:15:39.345Z,1033.74
2017-03-24T14:17:01.902Z,1033.77
2017-03-24T14:18:24.492Z,1033.75
2017-03-24T14:19:46.549Z,1033.73
2017-03-24T14:21:09.197Z,1033.73
2017-03-24T14:22:31.423Z,1033.71
2017-03-24T14:23:54.119Z,1033.68
2017-03-24T14:25:16.599Z,1033.72
2017-03-24T14:26:38.766Z,1033.73
2017-03-24T14:28:00.607Z,1033.8
2017-03-24T14:29:23.437Z,1033.75
2017-03-24T14:30:45.659Z,1033.79
2017-03-24T14:32:07.797Z,1033.82
2017-03-24T14:33:29.939Z,1033.79
2017-03-24T14:34:52.130Z,1033.79
2017-03-24T14:36:14.603Z,1033.86
2017-03-24T14:37:37.470Z,1033.83
2017-03-24T14:38:59.627Z,1033.8
2017-03-24T14:40:21.937Z,1033.84
2017-03-24T14:41:43.781Z,1033.79
2017-03-24T14:43:06.608Z,1033.81
2017-03-24T14:44:29.060Z,1033.78
2017-03-24T14:45:50.970Z,1033.81
2017-03-24T14:47:13.450Z,1033.83
2017-03-24T14:48:35.590Z,1033.82
2017-03-24T14:49:57.799Z,1033.87
2017-03-24T14:51:19.350Z,1033.86
2017-03-24T14:52:41.574Z,1033.9
2017-03-24T14:54:04.416Z,1033.84
2017-03-24T14:55:26.879Z,1033.86
2017-03-24T14:56:49.047Z,1033.89
2017-03-24T14:58:11.020Z,1033.86
2017-03-24T14:59:33.797Z,1033.87
2017-03-24T15:00:56.156Z,1033.86
2017-03-24T15:02:18.658Z,1033.86
2017-03-24T15:03:41.134Z,1033.85
2017-03-24T15:05:03.825Z,1033.79
2017-03-24T15:06:25.979Z,1033.78
2017-03-24T15:07:48.437Z,1033.79
2017-03-24T15:09:10.630Z,1033.69
2017-03-24T15:10:33.507Z,1033.67
2017-03-24T15:11:55.667Z,1033.61
2017-03-24T15:13:17.858Z,1033.67
2017-03-24T15:14:40.167Z,1033.65
2017-03-24T15:16:03.188Z,1033.64
2017-03-24T15:17:25.437Z,1033.62
2017-03-24T15:18:47.579Z,1033.63
2017-03-24T15:20:10.037Z,1033.62
2017-03-24T15:21:32.957Z,1033.58
2017-03-24T15:22:55.104Z,1033.56
2017-03-24T15:24:17.641Z,1033.52
2017-03-24T15:25:39.776Z,1033.51
2017-03-24T15:27:02.249Z,1033.47
2017-03-24T15:28:24.389Z,1033.46
2017-03-24T15:29:46.567Z,1033.51
2017-03-24T15:31:09.038Z,1033.53
2017-03-24T15:32:31.539Z,1033.47
2017-03-24T15:33:54.065Z,1033.44
2017-03-24T15:35:15.908Z,1033.4
2017-03-24T15:36:38.601Z,1033.41
2017-03-24T15:38:01.007Z,1033.36
2017-03-24T15:39:23.177Z,1033.36
2017-03-24T15:40:44.717Z,1033.32
2017-03-24T15:42:07.293Z,1033.35
2017-03-24T15:43:29.501Z,1033.29
2017-03-24T15:44:51.976Z,1033.26
2017-03-24T15:46:14.169Z,1033.26
2017-03-24T15:47:36.052Z,1033.25
2017-03-24T15:48:58.807Z,1033.31
2017-03-24T15:50:21.316Z,1033.28
2017-03-24T15:51:43.431Z,1033.31
2017-03-24T15:53:05.268Z,1033.29
2017-03-24T15:54:27.449Z,1033.28
2017-03-24T15:55:49.411Z,1033.36
2017-03-24T15:57:12.081Z,1033.34
2017-03-24T15:58:34.554Z,1033.35
2017-03-24T15:59:57.139Z,1033.38
2017-03-24T16:01:19.581Z,1033.37
2017-03-24T16:02:41.947Z,1033.35
2017-03-24T16:04:04.475Z,1033.32
2017-03-24T16:05:27.006Z,1033.31
2017-03-24T16:06:48.860Z,1033.3
2017-03-24T16:08:11.389Z,1033.3
2017-03-24T16:09:33.581Z,1033.28
2017-03-24T16:10:56.105Z,1033.28
2017-03-24T16:12:18.544Z,1033.31
2017-03-24T16:13:40.423Z,1033.34
2017-03-24T16:15:02.509Z,1033.37
2017-03-24T16:16:24.688Z,1033.3
2017-03-24T16:17:46.795Z,1033.34
2017-03-24T16:19:08.974Z,1033.24
2017-03-24T16:20:30.819Z,1033.28
2017-03-24T16:21:53.030Z,1033.31
2017-03-24T16:23:15.717Z,1033.28
2017-03-24T16:24:38.467Z,1033.22
2017-03-24T16:26:00.681Z,1033.27
2017-03-24T16:27:22.846Z,1033.21
2017-03-24T16:28:44.994Z,1033.17
2017-03-24T16:30:07.556Z,1033.17
2017-03-24T16:31:29.723Z,1033.17
2017-03-24T16:32:51.890Z,1033.16
2017-03-24T16:34:14.070Z,1033.14
2017-03-24T16:35:36.572Z,1033.17
2017-03-24T16:36:58.429Z,1033.15
2017-03-24T16:38:20.554Z,1033.19
2017-03-24T16:39:42.518Z,1033.23
2017-03-24T16:41:04.686Z,1033.23